Time;durP1;ratioP1;P1;durP2;ratioP2;P2;SDS_P1;SDS_P2;PMS_P1;PMS_P2;Temp;Humidity;BMP_temperature;BMP_pressure;BME280_temperature;BME280_humidity;BME280_pressure;Samples;Min_cycle;Max_cycle;Signal;HPM_P1;HPM_P2
2023/09/26 00:01:31;;;;;;;11.25;7.38;;;12.50;99.90;;;;;;5076203;28;20063;-65
2023/09/26 00:03:56;;;;;;;9.07;7.20;;;12.50;99.90;;;;;;5076086;28;20036;-64
2023/09/26 00:06:23;;;;;;;12.13;7.55;;;12.40;99.90;;;;;;5058128;28;20376;-65
2023/09/26 00:08:52;;;;;;;13.05;7.43;;;12.40;99.90;;;;;;5075714;28;20028;-65
2023/09/26 00:11:19;;;;;;;11.50;7.63;;;12.40;99.90;;;;;;5076031;28;20020;-65
2023/09/26 00:13:45;;;;;;;10.15;6.63;;;12.40;99.90;;;;;;5075681;28;20036;-64
2023/09/26 00:16:11;;;;;;;12.93;6.90;;;12.30;99.90;;;;;;5075713;28;20048;-65
2023/09/26 00:18:40;;;;;;;11.35;7.05;;;12.20;99.90;;;;;;5075779;28;20024;-64
2023/09/26 00:21:10;;;;;;;14.43;8.20;;;12.20;99.90;;;;;;5075884;28;20061;-64
2023/09/26 00:23:36;;;;;;;12.10;7.10;;;12.10;99.90;;;;;;5075726;28;20035;-64
2023/09/26 00:26:04;;;;;;;12.50;7.95;;;12.10;99.90;;;;;;5075667;28;20028;-65
2023/09/26 00:28:29;;;;;;;10.73;7.25;;;12.10;99.90;;;;;;5075709;28;20016;-65
2023/09/26 00:31:03;;;;;;;10.48;7.40;;;12.10;99.90;;;;;;5075557;28;20484;-65
2023/09/26 00:33:29;;;;;;;9.30;8.15;;;12.20;99.90;;;;;;5075671;28;20037;-65
2023/09/26 00:35:55;;;;;;;9.90;7.25;;;12.20;99.90;;;;;;5075542;28;20052;-65
2023/09/26 00:38:20;;;;;;;10.32;6.93;;;12.10;99.90;;;;;;5075639;28;20470;-64
2023/09/26 00:40:46;;;;;;;9.00;6.25;;;12.10;99.90;;;;;;5075786;28;20107;-65
2023/09/26 00:43:23;;;;;;;12.80;7.13;;;12.10;99.90;;;;;;5075004;28;20027;-65
2023/09/26 00:45:54;;;;;;;10.00;7.05;;;12.10;99.90;;;;;;5057483;28;20086;-64
2023/09/26 00:48:23;;;;;;;7.82;6.63;;;12.10;99.90;;;;;;5075346;28;20447;-65
2023/09/26 00:50:49;;;;;;;;;;;12.10;99.90;;;;;;5058592;28;20028;-64
2023/09/26 00:53:15;;;;;;;12.13;7.57;;;12.10;99.90;;;;;;5075137;28;20371;-65
2023/09/26 00:55:42;;;;;;;13.45;8.10;;;12.00;99.90;;;;;;5074750;28;20469;-64
2023/09/26 00:58:11;;;;;;;12.68;8.05;;;12.00;99.90;;;;;;5057152;28;20031;-64
2023/09/26 01:00:38;;;;;;;13.38;8.05;;;12.00;99.90;;;;;;5075028;28;20024;-65
2023/09/26 01:03:04;;;;;;;8.93;7.35;;;11.90;99.90;;;;;;5075361;28;20473;-65
2023/09/26 01:05:30;;;;;;;12.60;8.18;;;11.90;99.90;;;;;;5057030;28;20025;-65
2023/09/26 01:07:56;;;;;;;11.23;8.18;;;11.90;99.90;;;;;;5057017;28;20027;-66
2023/09/26 01:10:22;;;;;;;11.65;7.47;;;11.90;99.90;;;;;;5074289;28;20055;-65
2023/09/26 01:12:48;;;;;;;13.52;7.95;;;11.90;99.90;;;;;;5074783;28;20029;-65
2023/09/26 01:15:30;;;;;;;10.52;7.53;;;11.90;99.90;;;;;;5057022;28;20025;-65
2023/09/26 01:17:56;;;;;;;9.48;7.45;;;12.00;99.90;;;;;;5057241;28;20020;-65
2023/09/26 01:20:22;;;;;;;10.77;7.35;;;11.90;99.90;;;;;;5075042;28;20047;-68
2023/09/26 01:22:49;;;;;;;12.05;7.75;;;11.90;99.90;;;;;;5074892;28;20021;-66
2023/09/26 01:25:16;;;;;;;8.98;7.68;;;11.90;99.90;;;;;;5078519;28;20043;-65
2023/09/26 01:27:42;;;;;;;14.90;8.38;;;11.80;99.90;;;;;;5077643;28;20107;-68
2023/09/26 01:30:09;;;;;;;11.50;8.02;;;11.80;99.90;;;;;;5077300;28;20086;-65
2023/09/26 01:32:35;;;;;;;9.75;7.47;;;11.70;99.90;;;;;;5075297;28;20025;-64
2023/09/26 01:35:00;;;;;;;12.45;8.10;;;11.70;99.90;;;;;;5075684;28;20055;-65
2023/09/26 01:37:26;;;;;;;13.20;7.80;;;11.70;99.90;;;;;;5076756;28;20028;-65
2023/09/26 01:39:52;;;;;;;12.40;7.32;;;11.70;99.90;;;;;;5076980;28;20365;-65
2023/09/26 01:42:18;;;;;;;10.80;7.80;;;11.60;99.90;;;;;;5077153;28;20099;-67
2023/09/26 01:44:43;;;;;;;14.32;8.18;;;11.60;99.90;;;;;;5075445;28;20101;-64
2023/09/26 01:47:22;;;;;;;13.90;8.40;;;11.60;99.90;;;;;;5056467;28;20525;-65
2023/09/26 01:49:48;;;;;;;11.18;8.00;;;11.60;99.90;;;;;;5074383;28;20071;-65
2023/09/26 01:52:13;;;;;;;12.68;7.88;;;11.60;99.90;;;;;;5074279;28;20056;-65
2023/09/26 01:54:39;;;;;;;13.15;7.80;;;11.60;99.90;;;;;;5073905;28;20103;-64
2023/09/26 01:57:06;;;;;;;14.13;8.30;;;11.60;99.90;;;;;;5074412;28;20453;-64
2023/09/26 01:59:33;;;;;;;14.52;8.95;;;11.60;99.90;;;;;;5073853;28;20035;-64
2023/09/26 02:02:02;;;;;;;10.68;7.25;;;11.60;99.90;;;;;;5074012;28;20116;-65
2023/09/26 02:04:28;;;;;;;10.73;7.05;;;11.60;99.90;;;;;;5073979;28;20114;-64
2023/09/26 02:06:53;;;;;;;12.55;7.95;;;11.60;99.90;;;;;;5074055;28;20025;-65
2023/09/26 02:09:19;;;;;;;12.75;7.80;;;11.60;99.90;;;;;;5073694;28;20035;-65
2023/09/26 02:11:45;;;;;;;10.25;7.57;;;11.70;99.90;;;;;;5056180;28;20024;-64
2023/09/26 02:14:10;;;;;;;11.38;7.90;;;11.60;99.90;;;;;;5074265;28;20468;-64
2023/09/26 02:16:36;;;;;;;13.75;7.75;;;11.60;99.90;;;;;;5073780;28;20021;-66
2023/09/26 02:19:02;;;;;;;13.38;8.38;;;11.60;99.90;;;;;;5073648;28;20531;-65
2023/09/26 02:21:27;;;;;;;11.35;6.72;;;11.60;99.90;;;;;;5055817;28;20051;-65
2023/09/26 02:23:53;;;;;;;10.55;7.25;;;11.60;99.90;;;;;;5073550;28;20078;-65
2023/09/26 02:26:19;;;;;;;10.15;6.93;;;11.60;99.90;;;;;;5055959;28;20024;-65
2023/09/26 02:28:44;;;;;;;10.93;6.95;;;11.60;99.90;;;;;;5073783;28;20122;-65
2023/09/26 02:31:16;;;;;;;9.65;6.80;;;11.60;99.90;;;;;;5056064;28;20052;-64
2023/09/26 02:33:42;;;;;;;9.90;6.82;;;11.60;99.90;;;;;;5073997;28;20040;-65
2023/09/26 02:36:08;;;;;;;7.75;6.07;;;11.50;99.90;;;;;;5073925;28;20040;-64
2023/09/26 02:38:33;;;;;;;11.85;7.47;;;11.40;99.90;;;;;;5073630;28;20104;-65
2023/09/26 02:40:59;;;;;;;10.25;7.50;;;11.40;99.90;;;;;;5055926;28;20020;-64
2023/09/26 02:43:25;;;;;;;12.48;7.57;;;11.40;99.90;;;;;;5074321;28;20033;-65
2023/09/26 02:45:51;;;;;;;11.77;8.00;;;11.40;99.90;;;;;;5056853;28;20036;-65
2023/09/26 02:48:16;;;;;;;12.63;7.40;;;11.40;99.90;;;;;;5074152;28;20028;-65
2023/09/26 02:50:42;;;;;;;13.77;7.60;;;11.40;99.90;;;;;;5073829;28;20078;-65
2023/09/26 02:53:08;;;;;;;15.43;7.78;;;11.40;99.90;;;;;;5055591;28;20392;-69
2023/09/26 02:55:38;;;;;;;11.77;7.53;;;11.40;99.90;;;;;;5056031;28;20067;-64
2023/09/26 02:58:04;;;;;;;9.73;7.65;;;11.40;99.90;;;;;;5073668;28;20035;-65
2023/09/26 03:00:29;;;;;;;11.70;7.70;;;11.40;99.90;;;;;;5073934;28;20029;-65
2023/09/26 03:02:55;;;;;;;9.55;7.30;;;11.40;99.90;;;;;;5056163;28;20171;-65
2023/09/26 03:05:21;;;;;;;10.55;7.38;;;11.40;99.90;;;;;;5073842;28;20040;-64
2023/09/26 03:07:46;;;;;;;11.77;7.43;;;11.30;99.90;;;;;;5073523;28;20029;-65
2023/09/26 03:10:14;;;;;;;14.02;7.13;;;11.30;99.90;;;;;;5073865;28;20028;-65
2023/09/26 03:12:44;;;;;;;12.00;7.03;;;11.30;99.90;;;;;;5055796;28;20021;-66
2023/09/26 03:15:11;;;;;;;8.27;6.93;;;11.30;99.90;;;;;;5064564;28;20029;-65
2023/09/26 03:17:36;;;;;;;10.38;7.60;;;11.30;99.90;;;;;;5082859;28;20020;-65
2023/09/26 03:20:08;;;;;;;12.02;7.55;;;11.30;99.90;;;;;;5081721;28;20460;-66
2023/09/26 03:22:34;;;;;;;15.93;7.10;;;11.30;99.90;;;;;;5083829;28;20028;-65
2023/09/26 03:24:59;;;;;;;10.15;7.20;;;11.30;99.90;;;;;;5081427;28;20035;-65
2023/09/26 03:27:25;;;;;;;10.32;7.38;;;11.20;99.90;;;;;;5078445;28;20056;-65
2023/09/26 03:29:51;;;;;;;13.07;7.43;;;11.20;99.90;;;;;;5077998;28;20028;-65
2023/09/26 03:32:17;;;;;;;12.65;6.85;;;11.30;99.90;;;;;;5079748;28;20051;-64
2023/09/26 03:34:43;;;;;;;14.90;7.95;;;11.20;99.90;;;;;;5080941;28;20024;-65
2023/09/26 03:37:08;;;;;;;9.93;7.10;;;11.20;99.90;;;;;;5080854;28;20025;-65
2023/09/26 03:39:34;;;;;;;13.45;6.57;;;11.20;99.90;;;;;;5062569;28;20093;-64
2023/09/26 03:41:59;;;;;;;14.68;7.32;;;11.20;99.90;;;;;;5062374;28;20032;-69
2023/09/26 03:44:25;;;;;;;11.07;7.53;;;11.20;99.90;;;;;;5079458;28;20074;-65
2023/09/26 03:46:50;;;;;;;10.73;7.50;;;11.20;99.90;;;;;;5062783;28;20638;-64
2023/09/26 03:49:16;;;;;;;12.50;6.78;;;11.20;99.90;;;;;;5061774;28;20158;-64
2023/09/26 03:51:42;;;;;;;11.27;6.90;;;11.20;99.90;;;;;;5079324;28;20376;-64
2023/09/26 03:54:07;;;;;;;11.38;7.40;;;11.10;99.90;;;;;;5078818;28;20036;-64
2023/09/26 03:56:33;;;;;;;13.80;7.00;;;11.10;99.90;;;;;;5078759;28;20078;-68
2023/09/26 03:58:59;;;;;;;10.27;7.78;;;11.10;99.90;;;;;;5077963;28;20033;-65
2023/09/26 04:01:24;;;;;;;10.23;6.60;;;11.20;99.90;;;;;;5077841;28;20029;-64
2023/09/26 04:03:50;;;;;;;8.73;7.32;;;11.20;99.90;;;;;;5060033;28;20526;-64
2023/09/26 04:06:16;;;;;;;11.88;7.07;;;11.20;99.90;;;;;;5059603;28;20119;-65
2023/09/26 04:08:42;;;;;;;12.68;6.13;;;11.20;99.90;;;;;;5077130;28;20024;-65
2023/09/26 04:11:14;;;;;;;12.13;7.45;;;11.20;99.90;;;;;;5077791;28;20039;-65
2023/09/26 04:13:41;;;;;;;10.60;7.43;;;11.20;99.90;;;;;;5061672;28;20036;-66
2023/09/26 04:16:06;;;;;;;11.93;6.90;;;11.20;99.90;;;;;;5078599;28;20109;-65
2023/09/26 04:18:32;;;;;;;12.00;6.57;;;11.20;99.90;;;;;;5078792;28;20128;-65
2023/09/26 04:21:02;;;;;;;8.57;6.82;;;11.20;99.90;;;;;;5077011;28;20115;-65
2023/09/26 04:23:28;;;;;;;10.20;6.20;;;11.10;99.90;;;;;;5058520;28;20043;-65
2023/09/26 04:25:54;;;;;;;9.50;7.10;;;11.00;99.90;;;;;;5076039;28;20020;-65
2023/09/26 04:28:19;;;;;;;11.65;6.72;;;11.00;99.90;;;;;;5076044;28;20059;-65
2023/09/26 04:30:45;;;;;;;10.63;7.05;;;11.00;99.90;;;;;;5058203;28;20035;-64
2023/09/26 04:33:18;;;;;;;10.57;6.47;;;10.90;99.90;;;;;;5075929;28;20396;-64
2023/09/26 04:35:44;;;;;;;10.57;7.60;;;10.90;99.90;;;;;;5076141;28;20041;-64
2023/09/26 04:38:09;;;;;;;11.90;7.53;;;10.90;99.90;;;;;;5057654;28;20025;-64
2023/09/26 04:40:35;;;;;;;9.77;7.57;;;10.80;99.90;;;;;;5075565;28;20027;-64
2023/09/26 04:43:03;;;;;;;14.65;8.65;;;10.80;99.90;;;;;;5075117;28;20025;-64
2023/09/26 04:45:32;;;;;;;13.15;7.80;;;10.90;99.90;;;;;;5074994;28;20025;-65
2023/09/26 04:48:01;;;;;;;12.75;8.40;;;10.90;99.90;;;;;;5057688;28;20033;-67
2023/09/26 04:50:37;;;;;;;13.25;7.78;;;10.90;99.90;;;;;;5075033;28;20028;-66
2023/09/26 04:53:03;;;;;;;13.85;8.45;;;11.00;99.90;;;;;;5075556;28;20119;-64
2023/09/26 04:55:29;;;;;;;10.05;7.72;;;11.00;99.90;;;;;;5057410;28;20127;-64
2023/09/26 04:57:54;;;;;;;11.55;7.82;;;11.10;99.90;;;;;;5075587;28;20024;-64
2023/09/26 05:00:20;;;;;;;14.30;8.27;;;11.00;99.90;;;;;;5057418;28;20036;-64
2023/09/26 05:02:51;;;;;;;11.82;8.82;;;11.10;99.90;;;;;;5057439;28;20385;-65
2023/09/26 05:05:19;;;;;;;13.02;8.43;;;11.10;99.90;;;;;;5057252;28;20032;-65
2023/09/26 05:07:45;;;;;;;12.05;8.25;;;11.10;99.90;;;;;;5057095;28;20035;-65
2023/09/26 05:10:12;;;;;;;12.40;8.32;;;11.20;99.90;;;;;;5075225;28;20024;-64
2023/09/26 05:12:40;;;;;;;14.48;8.65;;;11.20;99.90;;;;;;5074990;28;20021;-65
2023/09/26 05:15:16;;;;;;;14.20;7.83;;;11.20;99.90;;;;;;5074754;28;20051;-64
2023/09/26 05:17:52;;;;;;;11.75;7.55;;;11.20;99.90;;;;;;5056775;28;20020;-64
2023/09/26 05:20:19;;;;;;;12.07;7.80;;;11.30;99.90;;;;;;5057081;28;20105;-69
2023/09/26 05:22:47;;;;;;;11.25;8.35;;;11.30;99.90;;;;;;5076950;28;20024;-67
2023/09/26 05:25:13;;;;;;;14.15;7.85;;;11.30;99.90;;;;;;5079099;28;20407;-69
2023/09/26 05:27:39;;;;;;;10.40;7.65;;;11.30;99.90;;;;;;5060115;28;20041;-65
2023/09/26 05:30:06;;;;;;;13.05;8.18;;;11.40;99.90;;;;;;5078349;28;20039;-65
2023/09/26 05:32:32;;;;;;;12.90;7.65;;;11.40;99.90;;;;;;5077054;28;20063;-65
2023/09/26 05:34:58;;;;;;;14.98;8.57;;;11.50;99.90;;;;;;5064339;28;20048;-65
2023/09/26 05:37:24;;;;;;;10.50;6.97;;;11.50;99.90;;;;;;5097056;28;20038;-65
2023/09/26 05:39:50;;;;;;;11.38;7.97;;;11.60;99.90;;;;;;5094779;28;20020;-64
2023/09/26 05:42:16;;;;;;;12.43;7.30;;;11.60;99.90;;;;;;5094734;28;20375;-65
2023/09/26 05:44:42;;;;;;;11.55;7.85;;;11.70;99.90;;;;;;5094206;28;20111;-65
2023/09/26 05:47:07;;;;;;;14.35;7.47;;;11.80;99.90;;;;;;5094527;28;20028;-64
2023/09/26 05:49:33;;;;;;;13.73;7.65;;;11.80;99.90;;;;;;5094356;28;20483;-65
2023/09/26 05:51:59;;;;;;;10.57;6.80;;;11.90;99.90;;;;;;5094203;28;20031;-64
2023/09/26 05:54:24;;;;;;;13.60;6.60;;;12.00;99.90;;;;;;5094260;28;20028;-64
2023/09/26 05:56:50;;;;;;;8.68;7.10;;;12.10;99.90;;;;;;5094268;28;20025;-65
2023/09/26 05:59:15;;;;;;;11.32;6.82;;;12.20;99.90;;;;;;5093275;28;20028;-64
2023/09/26 06:01:41;;;;;;;12.55;6.47;;;12.40;99.90;;;;;;5092914;28;20024;-64
2023/09/26 06:04:07;;;;;;;11.02;6.57;;;12.60;99.90;;;;;;5093999;28;20035;-64
2023/09/26 06:06:33;;;;;;;11.40;7.50;;;12.80;99.90;;;;;;5092832;28;20371;-65
2023/09/26 06:08:59;;;;;;;6.97;5.68;;;13.10;99.90;;;;;;5094241;28;20111;-64
2023/09/26 06:11:25;;;;;;;10.13;6.03;;;13.30;99.90;;;;;;5094579;28;20103;-64
2023/09/26 06:13:52;;;;;;;10.82;5.82;;;13.50;99.90;;;;;;5094001;28;20063;-64
2023/09/26 06:16:19;;;;;;;8.85;5.88;;;13.70;99.90;;;;;;5093859;28;20030;-65
2023/09/26 06:18:45;;;;;;;8.63;6.03;;;14.00;99.90;;;;;;5094156;28;20024;-65
2023/09/26 06:21:13;;;;;;;9.55;5.20;;;14.20;99.90;;;;;;5093805;28;20032;-65
2023/09/26 06:23:38;;;;;;;7.97;5.80;;;14.40;99.90;;;;;;5093685;28;20073;-65
2023/09/26 06:26:04;;;;;;;12.93;5.90;;;14.50;99.90;;;;;;5092412;28;20024;-65
2023/09/26 06:28:31;;;;;;;12.20;6.55;;;14.50;99.90;;;;;;5093918;28;20025;-65
2023/09/26 06:31:06;;;;;;;12.13;6.72;;;14.70;99.90;;;;;;5093870;28;20349;-65
2023/09/26 06:33:32;;;;;;;14.32;6.60;;;14.80;99.90;;;;;;5092775;28;20551;-65
2023/09/26 06:35:58;;;;;;;12.48;9.27;;;14.80;99.90;;;;;;5081154;28;20187;-65
2023/09/26 06:38:24;;;;;;;14.35;10.50;;;;;;;;;;5073845;28;20086;-66
2023/09/26 06:41:02;;;;;;;19.35;11.35;;;15.20;99.90;;;;;;5055517;28;20465;-65
2023/09/26 06:43:29;;;;;;;15.93;11.52;;;15.30;99.90;;;;;;5073499;28;20024;-65
2023/09/26 06:45:55;;;;;;;15.48;12.55;;;15.60;99.90;;;;;;5055483;28;20468;-65
2023/09/26 06:48:20;;;;;;;21.52;12.80;;;15.70;99.90;;;;;;5073537;28;20028;-65
2023/09/26 06:50:46;;;;;;;15.40;11.80;;;15.90;99.90;;;;;;5073226;28;20025;-65
2023/09/26 06:53:12;;;;;;;23.92;12.68;;;16.10;99.90;;;;;;5073036;28;20021;-65
2023/09/26 06:55:39;;;;;;;19.15;11.57;;;16.30;99.90;;;;;;5073203;28;20052;-65
2023/09/26 06:58:05;;;;;;;21.02;12.32;;;16.50;99.90;;;;;;5055469;28;20025;-65
2023/09/26 07:00:31;;;;;;;16.83;12.10;;;16.80;99.90;;;;;;5055367;28;20417;-65
2023/09/26 07:02:57;;;;;;;20.67;12.57;;;17.20;99.90;;;;;;5073367;28;20035;-64
2023/09/26 07:05:26;;;;;;;20.75;13.63;;;17.70;99.90;;;;;;5055432;28;20048;-65
2023/09/26 07:07:54;;;;;;;16.70;11.98;;;18.10;99.90;;;;;;5075690;28;20103;-65
2023/09/26 07:10:22;;;;;;;19.80;12.05;;;18.70;99.90;;;;;;5077416;28;20028;-65
2023/09/26 07:12:48;;;;;;;18.98;12.65;;;19.20;99.90;;;;;;5077203;28;20135;-65
2023/09/26 07:15:14;;;;;;;21.58;13.45;;;19.80;99.90;;;;;;5059151;28;20036;-65
2023/09/26 07:17:40;;;;;;;17.27;12.30;;;20.20;99.90;;;;;;5077134;28;20033;-65
2023/09/26 07:20:13;;;;;;;19.50;12.75;;;20.60;99.90;;;;;;5077007;28;20025;-65
2023/09/26 07:22:42;;;;;;;24.33;13.07;;;20.80;99.90;;;;;;5077064;28;20063;-65
2023/09/26 07:25:08;;;;;;;;;;;21.10;99.90;;;;;;5077288;28;20033;-65
2023/09/26 07:27:34;;;;;;;21.77;12.18;;;21.40;99.90;;;;;;5076882;28;20308;-63
2023/09/26 07:29:59;;;;;;;24.30;11.82;;;21.80;99.90;;;;;;5077202;28;20111;-65
2023/09/26 07:32:25;;;;;;;18.10;11.75;;;22.10;99.90;;;;;;5076916;28;20384;-63
2023/09/26 07:34:51;;;;;;;14.40;10.35;;;22.70;99.90;;;;;;5076569;28;20049;-63
2023/09/26 07:37:16;;;;;;;19.45;10.10;;;23.00;99.90;;;;;;5077272;28;20372;-63
2023/09/26 07:39:44;;;;;;;13.52;10.10;;;23.30;99.90;;;;;;5076658;28;20456;-63
2023/09/26 07:42:10;;;;;;;17.52;9.23;;;23.70;99.90;;;;;;5076521;28;20025;-63
2023/09/26 07:44:35;;;;;;;12.00;8.70;;;24.00;99.90;;;;;;5076465;28;20488;-63
2023/09/26 07:47:02;;;;;;;19.35;8.55;;;24.20;99.90;;;;;;5058615;28;20036;-63
2023/09/26 07:49:27;;;;;;;11.45;8.45;;;24.50;99.90;;;;;;5076559;28;20376;-63
2023/09/26 07:51:53;;;;;;;12.68;9.02;;;24.90;99.20;;;;;;5058730;28;20025;-63
2023/09/26 07:54:19;;;;;;;10.93;8.00;;;25.20;98.50;;;;;;5076147;28;20590;-63
2023/09/26 07:56:44;;;;;;;13.05;8.13;;;25.30;97.80;;;;;;5076375;28;20024;-63
2023/09/26 07:59:10;;;;;;;14.40;7.88;;;25.50;97.10;;;;;;5076491;28;20099;-63
2023/09/26 08:01:36;;;;;;;13.38;7.47;;;25.60;97.10;;;;;;5076507;28;20107;-63
2023/09/26 08:04:02;;;;;;;12.25;7.60;;;25.70;96.20;;;;;;5076554;28;20476;-64
2023/09/26 08:06:28;;;;;;;11.82;7.35;;;26.00;95.40;;;;;;5058461;28;20024;-64
2023/09/26 08:08:53;;;;;;;11.93;7.80;;;26.10;95.20;;;;;;5058461;28;20140;-63
2023/09/26 08:11:21;;;;;;;15.88;6.97;;;26.20;94.80;;;;;;5076125;28;20109;-64
2023/09/26 08:13:46;;;;;;;11.15;6.78;;;26.40;94.50;;;;;;5076309;28;20078;-63
2023/09/26 08:16:12;;;;;;;8.32;6.10;;;26.60;94.10;;;;;;5075998;28;20461;-63
2023/09/26 08:18:38;;;;;;;10.35;5.70;;;26.80;93.70;;;;;;5075880;28;20029;-63
2023/09/26 08:21:04;;;;;;;9.60;5.68;;;26.80;93.40;;;;;;5075851;28;20376;-63
2023/09/26 08:23:30;;;;;;;7.72;5.22;;;27.00;93.00;;;;;;5075304;28;20094;-63
2023/09/26 08:26:11;;;;;;;11.27;6.20;;;26.90;92.60;;;;;;5076607;28;20017;-64
2023/09/26 08:28:40;;;;;;;11.95;5.40;;;27.00;92.30;;;;;;5075776;28;20020;-64
2023/09/26 08:31:10;;;;;;;10.63;5.07;;;27.10;92.30;;;;;;5076099;28;20103;-65
2023/09/26 08:33:36;;;;;;;9.02;5.28;;;27.30;91.80;;;;;;5075573;28;20052;-64
2023/09/26 08:36:11;;;;;;;8.40;5.20;;;27.60;91.50;;;;;;5075656;28;20049;-64
2023/09/26 08:38:37;;;;;;;11.15;4.90;;;27.70;90.90;;;;;;5057865;28;20025;-63
2023/09/26 08:41:05;;;;;;;8.82;4.50;;;27.50;91.30;;;;;;5075273;28;20024;-64
2023/09/26 08:43:33;;;;;;;15.40;12.25;;;28.00;90.30;;;;;;5057220;28;20031;-64
2023/09/26 08:45:59;;;;;;;19.67;4.77;;;28.10;89.80;;;;;;5075327;28;20033;-63
2023/09/26 08:48:24;;;;;;;9.13;4.47;;;27.90;89.40;;;;;;5075086;28;20032;-65
2023/09/26 08:50:50;;;;;;;9.27;4.35;;;28.20;89.40;;;;;;5075009;28;20063;-64
2023/09/26 08:53:16;;;;;;;9.32;4.10;;;28.60;88.20;;;;;;5075321;28;20457;-64
2023/09/26 08:55:43;;;;;;;8.38;4.03;;;29.00;86.70;;;;;;5074704;28;20145;-64
2023/09/26 08:58:09;;;;;;;6.97;4.00;;;29.10;85.30;;;;;;5075210;28;20028;-64
2023/09/26 09:00:35;;;;;;;7.75;3.80;;;29.50;84.30;;;;;;5074779;28;20021;-65
2023/09/26 09:03:00;;;;;;;8.48;4.13;;;30.00;83.00;;;;;;5074823;28;20410;-64
2023/09/26 09:05:26;;;;;;;8.30;3.75;;;30.40;80.90;;;;;;5057138;28;20556;-65
2023/09/26 09:07:52;;;;;;;5.55;3.33;;;30.40;80.60;;;;;;5074770;28;20033;-64
2023/09/26 09:10:17;;;;;;;10.13;3.10;;;30.30;80.00;;;;;;5074870;28;20064;-65
2023/09/26 09:12:47;;;;;;;7.82;3.42;;;30.90;78.70;;;;;;5075303;28;20369;-64
2023/09/26 09:15:15;;;;;;;5.32;2.75;;;31.30;76.90;;;;;;5074558;28;20024;-66
2023/09/26 09:17:42;;;;;;;5.95;3.15;;;31.80;74.80;;;;;;5057041;28;20082;-66
2023/09/26 09:20:10;;;;;;;6.70;2.97;;;31.90;73.60;;;;;;5074745;28;20025;-66
2023/09/26 09:22:36;;;;;;;4.63;2.70;;;32.00;73.20;;;;;;5075203;28;20112;-66
2023/09/26 09:25:02;;;;;;;11.35;3.30;;;32.50;71.50;;;;;;5074683;28;20183;-66
2023/09/26 09:27:28;;;;;;;5.93;2.80;;;32.90;69.90;;;;;;5056786;28;20024;-66
2023/09/26 09:30:04;;;;;;;8.82;3.15;;;32.70;69.10;;;;;;5074378;28;20099;-66
2023/09/26 09:32:30;;;;;;;8.07;2.40;;;32.70;69.00;;;;;;5074684;28;20024;-66
2023/09/26 09:34:56;;;;;;;12.50;3.10;;;32.80;68.30;;;;;;5074535;28;20045;-66
2023/09/26 09:37:21;;;;;;;7.07;2.30;;;32.70;67.60;;;;;;5074882;28;20033;-65
2023/09/26 09:39:47;;;;;;;6.13;3.00;;;32.50;67.90;;;;;;5074632;28;20103;-66
2023/09/26 09:42:13;;;;;;;12.57;3.28;;;31.90;68.00;;;;;;5074891;28;20021;-66
2023/09/26 09:44:38;;;;;;;8.48;3.10;;;31.80;68.40;;;;;;5082896;28;20032;-65
2023/09/26 09:47:04;;;;;;;8.43;2.70;;;31.30;69.40;;;;;;5086466;28;20021;-68
2023/09/26 09:49:38;;;;;;;6.05;2.75;;;31.60;69.50;;;;;;5084345;28;20032;-65
2023/09/26 09:52:05;;;;;;;9.52;2.60;;;32.60;67.80;;;;;;5083777;28;20035;-66
2023/09/26 09:54:33;;;;;;;6.57;2.88;;;33.20;65.90;;;;;;5076327;28;20029;-66
2023/09/26 09:57:03;;;;;;;9.02;2.70;;;33.20;66.10;;;;;;5056339;28;20369;-65
2023/09/26 09:59:34;;;;;;;7.57;2.67;;;32.40;66.40;;;;;;5056969;28;20087;-64
2023/09/26 10:02:01;;;;;;;7.43;2.47;;;32.20;67.00;;;;;;5074062;28;20478;-66
2023/09/26 10:04:28;;;;;;;3.80;2.30;;;32.30;66.80;;;;;;5074026;28;20025;-64
2023/09/26 10:06:54;;;;;;;4.67;2.30;;;32.50;66.20;;;;;;5074157;28;20027;-64
2023/09/26 10:09:21;;;;;;;3.85;2.58;;;32.70;65.70;;;;;;5074204;28;20103;-64
2023/09/26 10:11:48;;;;;;;15.18;3.33;;;32.40;65.90;;;;;;5056324;28;20032;-65
2023/09/26 10:14:23;;;;;;;8.40;3.20;;;31.60;67.50;;;;;;5056109;28;20120;-64
2023/09/26 10:16:50;;;;;;;8.10;2.88;;;31.40;67.70;;;;;;5074098;28;20021;-64
2023/09/26 10:19:16;;;;;;;7.03;2.60;;;31.20;68.90;;;;;;5056003;28;20025;-64
2023/09/26 10:21:42;;;;;;;8.70;2.70;;;31.30;68.70;;;;;;5074037;28;20337;-64
2023/09/26 10:24:16;;;;;;;6.32;2.63;;;30.70;70.20;;;;;;5073955;28;20035;-64
2023/09/26 10:26:47;;;;;;;5.65;2.50;;;31.10;69.40;;;;;;5074188;28;20467;-64
2023/09/26 10:29:26;;;;;;;5.22;2.72;;;31.80;68.50;;;;;;5073750;28;20452;-64
2023/09/26 10:31:53;;;;;;;7.43;2.88;;;32.10;68.30;;;;;;5055999;28;20042;-64
2023/09/26 10:34:37;;;;;;;4.63;2.80;;;32.10;67.70;;;;;;5073739;28;20419;-65
2023/09/26 10:37:07;;;;;;;4.68;3.25;;;32.30;67.10;;;;;;5072469;28;20421;-65
2023/09/26 10:39:35;;;;;;;7.80;3.42;;;32.20;67.00;;;;;;5074078;28;20024;-64
2023/09/26 10:42:14;;;;;;;5.93;3.83;;;31.70;68.10;;;;;;5074835;28;20028;-64
2023/09/26 10:44:44;;;;;;;4.72;2.88;;;32.40;67.40;;;;;;5078347;28;20033;-65
2023/09/26 10:47:12;;;;;;;6.10;2.88;;;33.20;65.70;;;;;;5077705;28;20492;-64
2023/09/26 10:49:38;;;;;;;6.10;2.67;;;32.80;65.50;;;;;;5077639;28;20028;-66
2023/09/26 10:52:08;;;;;;;5.13;2.67;;;33.10;65.80;;;;;;5077615;28;20082;-66
2023/09/26 10:54:36;;;;;;;6.03;3.20;;;33.50;65.10;;;;;;5077973;28;20032;-66
2023/09/26 10:57:01;;;;;;;4.40;2.97;;;33.90;63.90;;;;;;5077612;28;20456;-65
2023/09/26 10:59:32;;;;;;;5.88;3.30;;;33.60;63.60;;;;;;5077678;28;20020;-66
2023/09/26 11:01:59;;;;;;;8.05;2.67;;;34.00;63.50;;;;;;5077914;28;20025;-67
2023/09/26 11:04:31;;;;;;;7.53;2.95;;;34.30;62.90;;;;;;5077465;28;20036;-66
2023/09/26 11:07:00;;;;;;;5.47;2.72;;;34.30;62.80;;;;;;5077086;28;20396;-66
2023/09/26 11:09:27;;;;;;;6.15;3.55;;;34.90;61.90;;;;;;5077122;28;20537;-66
2023/09/26 11:11:56;;;;;;;7.90;3.33;;;34.90;60.80;;;;;;5075858;28;20028;-66
2023/09/26 11:14:22;;;;;;;6.88;3.35;;;34.70;60.80;;;;;;5077059;28;20024;-66
2023/09/26 11:16:48;;;;;;;4.55;3.03;;;34.00;61.50;;;;;;5075895;28;20025;-66
2023/09/26 11:19:13;;;;;;;6.18;3.58;;;32.70;63.40;;;;;;5076990;28;20337;-65
2023/09/26 11:21:39;;;;;;;7.78;3.22;;;32.20;64.80;;;;;;5077056;28;20483;-65
2023/09/26 11:24:27;;;;;;;7.13;3.33;;;32.80;64.80;;;;;;5075804;28;20423;-64
2023/09/26 11:26:58;;;;;;;4.78;3.25;;;34.10;62.60;;;;;;5075511;28;20021;-65
2023/09/26 11:29:24;;;;;;;6.22;3.53;;;34.10;61.50;;;;;;5076584;28;20024;-64
2023/09/26 11:31:52;;;;;;;7.88;3.30;;;33.90;62.00;;;;;;5076437;28;20128;-66
2023/09/26 11:34:19;;;;;;;8.40;3.30;;;33.90;62.00;;;;;;5075570;28;20024;-65
2023/09/26 11:36:47;;;;;;;6.80;3.50;;;33.50;62.10;;;;;;5076053;28;20116;-65
2023/09/26 11:39:14;;;;;;;6.00;3.10;;;33.90;61.80;;;;;;5057953;28;20391;-65
2023/09/26 11:41:41;;;;;;;9.27;3.15;;;34.70;60.70;;;;;;5075968;28;20032;-66
2023/09/26 11:44:11;;;;;;;5.38;3.42;;;34.90;60.10;;;;;;5075208;28;20119;-66
2023/09/26 11:46:47;;;;;;;9.50;3.53;;;35.00;58.80;;;;;;5075526;28;20024;-65
2023/09/26 11:49:15;;;;;;;7.38;3.20;;;35.30;59.00;;;;;;5075235;28;20017;-65
2023/09/26 11:51:41;;;;;;;6.47;3.05;;;34.00;59.00;;;;;;5075271;28;20017;-64
2023/09/26 11:54:07;;;;;;;5.03;3.40;;;33.50;59.90;;;;;;5074756;28;20384;-64
2023/09/26 11:56:34;;;;;;;8.88;3.05;;;33.60;60.60;;;;;;5057217;28;20024;-64
2023/09/26 11:59:06;;;;;;;10.70;3.88;;;33.90;60.50;;;;;;5056812;28;20042;-65
2023/09/26 12:01:33;;;;;;;5.47;3.20;;;34.70;58.80;;;;;;5074890;28;20404;-65
2023/09/26 12:04:06;;;;;;;9.13;3.58;;;35.10;58.30;;;;;;5057179;28;20036;-66
2023/09/26 12:06:35;;;;;;;9.35;3.30;;;35.60;57.50;;;;;;5074909;28;20457;-64
2023/09/26 12:09:03;;;;;;;7.68;3.35;;;35.10;57.40;;;;;;5057052;28;20020;-64
2023/09/26 12:11:29;;;;;;;8.55;2.70;;;35.40;57.50;;;;;;5074991;28;20116;-57
2023/09/26 12:13:54;;;;;;;8.63;3.47;;;35.40;56.20;;;;;;5075167;28;20127;-59
2023/09/26 12:16:20;;;;;;;5.00;2.53;;;34.20;57.20;;;;;;5074815;28;20073;-58
2023/09/26 12:18:46;;;;;;;4.70;2.78;;;33.20;58.90;;;;;;5056670;28;20405;-59
2023/09/26 12:21:12;;;;;;;6.15;3.25;;;32.90;60.00;;;;;;5056740;28;20025;-59
2023/09/26 12:23:37;;;;;;;7.03;3.00;;;33.10;60.30;;;;;;5074615;28;20031;-59
2023/09/26 12:26:03;;;;;;;10.05;3.05;;;33.30;59.80;;;;;;5074467;28;20024;-58
2023/09/26 12:28:28;;;;;;;10.20;3.83;;;33.40;59.10;;;;;;5074774;28;20103;-58
2023/09/26 12:30:54;;;;;;;5.00;3.45;;;32.70;59.80;;;;;;5056476;28;20407;-59
2023/09/26 12:33:22;;;;;;;6.95;3.58;;;32.40;61.00;;;;;;5074836;28;20031;-59
2023/09/26 12:35:47;;;;;;;9.70;3.80;;;31.70;61.30;;;;;;5035301;28;1123302;-56
2023/09/26 12:38:13;;;;;;;10.18;3.15;;;31.30;62.10;;;;;;5075397;28;20040;-59
2023/09/26 12:40:39;;;;;;;7.30;3.55;;;31.70;62.60;;;;;;5075684;28;20465;-58